Time;durP1;ratioP1;P1;durP2;ratioP2;P2;SDS_P1;SDS_P2;PMS_P1;PMS_P2;Temp;Humidity;BMP_temperature;BMP_pressure;BME280_temperature;BME280_humidity;BME280_pressure;Samples;Min_cycle;Max_cycle;Signal;HPM_P1;HPM_P2
2023/04/07 00:00:40;;;;;;;24.97;15.37;;;2.70;99.90;3.00;93944.00;;;;7395775;19;20165;-79
2023/04/07 00:03:07;;;;;;;28.03;14.90;;;2.70;99.90;3.00;93969.00;;;;7395475;19;20144;-76
2023/04/07 00:05:42;;;;;;;29.47;16.40;;;2.70;99.90;3.00;93954.00;;;;7397494;19;20587;-78
2023/04/07 00:08:09;;;;;;;32.67;17.77;;;2.70;99.90;3.00;93979.00;;;;7396312;19;20165;-77
2023/04/07 00:10:42;;;;;;;34.30;17.80;;;2.80;92.50;2.90;93950.00;;;;7397804;19;20154;-76
2023/04/07 00:13:10;;;;;;;28.13;16.07;;;2.70;99.90;3.10;93959.00;;;;7392659;19;20231;-76
2023/04/07 00:15:43;;;;;;;24.87;15.57;;;2.80;67.50;3.00;93952.00;;;;7395134;19;20615;-75
2023/04/07 00:18:10;;;;;;;28.60;16.77;;;2.80;54.10;3.00;93962.00;;;;7396906;19;20295;-77
2023/04/07 00:20:44;;;;;;;29.20;15.27;;;2.80;57.60;3.00;93951.00;;;;7402219;19;20153;-75
2023/04/07 00:23:19;;;;;;;26.63;15.80;;;2.80;41.30;3.10;93956.00;;;;7403626;19;20220;-76
2023/04/07 00:25:53;;;;;;;24.03;14.63;;;2.80;29.70;2.90;93966.00;;;;7401453;19;20174;-77
2023/04/07 00:28:20;;;;;;;30.37;17.93;;;2.80;19.00;3.00;93943.00;;;;7402622;19;20147;-75
2023/04/07 00:30:55;;;;;;;29.73;16.33;;;2.90;1.00;3.10;93964.00;;;;7403709;19;20180;-75
2023/04/07 00:33:22;;;;;;;21.97;14.37;;;2.90;1.00;3.20;93941.00;;;;7389338;19;20133;-76
2023/04/07 00:35:57;;;;;;;24.73;15.27;;;2.90;1.00;3.10;93948.00;;;;7403080;19;20151;-77
2023/04/07 00:38:30;;;;;;;21.10;13.93;;;2.90;1.00;3.10;93929.00;;;;7401994;19;20215;-76
2023/04/07 00:41:05;;;;;;;24.20;14.53;;;2.90;1.00;3.10;93956.00;;;;7402419;19;20160;-77
2023/04/07 00:43:32;;;;;;;25.63;14.40;;;2.90;1.00;3.00;93927.00;;;;7403341;19;20153;-76
2023/04/07 00:46:00;;;;;;;22.57;13.93;;;2.90;1.00;3.00;93958.00;;;;7401096;19;20185;-76
2023/04/07 00:48:35;;;;;;;22.17;13.20;;;2.90;1.00;3.10;93920.00;;;;7402847;19;20194;-77
2023/04/07 00:51:03;;;;;;;19.13;12.53;;;2.90;1.00;3.00;93891.00;;;;7401445;19;20136;-77
2023/04/07 00:53:38;;;;;;;18.27;12.60;;;2.90;1.00;3.00;93936.00;;;;7403031;19;20148;-74
2023/04/07 00:56:12;;;;;;;21.60;12.93;;;2.90;1.00;3.00;93933.00;;;;7401285;19;20171;-76
2023/04/07 00:58:52;;;;;;;18.50;11.20;;;2.90;1.00;3.00;93930.00;;;;7402960;19;20156;-77
2023/04/07 01:01:30;;;;;;;17.50;11.37;;;2.90;1.00;3.00;93919.00;;;;7401352;19;20634;-79
2023/04/07 01:04:20;;;;;;;16.07;11.10;;;2.90;1.00;3.00;93856.00;;;;7403299;19;20492;-78
2023/04/07 01:06:52;;;;;;;15.93;9.83;;;2.90;1.00;2.90;93923.00;;;;7399404;19;20157;-80
2023/04/07 01:09:38;;;;;;;20.50;11.30;;;2.90;1.00;3.10;93915.00;;;;7403835;19;20180;-78
2023/04/07 01:12:29;;;;;;;15.97;10.73;;;2.90;1.00;2.90;93920.00;;;;7398909;19;20588;-80
2023/04/07 01:15:06;;;;;;;13.17;10.10;;;2.90;1.00;3.00;93919.00;;;;7402756;19;20144;-77
2023/04/07 01:17:58;;;;;;;15.63;10.33;;;2.90;1.00;2.90;93897.00;;;;7400768;19;20592;-77
2023/04/07 01:20:31;;;;;;;20.77;11.63;;;2.90;1.00;2.80;93875.00;;;;7402202;19;20583;-77
2023/04/07 01:23:07;;;;;;;16.33;10.40;;;2.80;1.00;2.80;93907.00;;;;7402547;19;20446;-79
2023/04/07 01:26:03;;;;;;;21.10;11.30;;;2.80;1.00;2.90;93851.00;;;;7401808;19;20137;-77
2023/04/07 01:29:26;;;;;;;14.57;10.23;;;2.80;5.20;2.80;93894.00;;;;7402230;19;20584;-79
2023/04/07 01:32:04;;;;;;;12.00;8.97;;;2.80;50.80;2.80;93896.00;;;;7398878;19;20171;-78
2023/04/07 01:34:40;;;;;;;17.60;9.53;;;2.80;99.90;2.80;93885.00;;;;7401598;19;20604;-79
2023/04/07 01:37:09;;;;;;;16.73;9.00;;;2.70;99.90;2.90;93891.00;;;;7401236;19;20148;-80
2023/04/07 01:39:43;;;;;;;12.93;8.63;;;2.70;99.90;2.80;93890.00;;;;7399879;19;20142;-77
2023/04/07 01:42:21;;;;;;;17.00;9.63;;;2.70;99.90;2.90;93893.00;;;;7401121;19;20515;-79
2023/04/07 01:44:56;;;;;;;14.90;9.50;;;2.70;99.90;2.80;93891.00;;;;7401850;19;20576;-77
2023/04/07 01:47:29;;;;;;;14.40;9.27;;;2.70;99.90;2.80;93872.00;;;;7399735;19;20151;-79
2023/04/07 01:50:04;;;;;;;13.03;9.10;;;2.70;99.90;2.90;93883.00;;;;7401003;19;20156;-80
2023/04/07 01:52:39;;;;;;;14.20;8.50;;;2.70;99.90;2.90;93880.00;;;;7402519;19;20156;-78
2023/04/07 01:55:13;;;;;;;12.40;8.07;;;2.70;99.90;2.90;93853.00;;;;7400229;19;20148;-78
2023/04/07 01:57:54;;;;;;;11.30;7.40;;;2.70;99.90;2.90;93856.00;;;;7398941;19;20508;-80
2023/04/07 02:00:27;;;;;;;13.73;8.07;;;2.70;99.90;3.10;93875.00;;;;7399293;19;20152;-80
2023/04/07 02:03:19;;;;;;;11.57;7.37;;;2.70;99.90;3.00;93858.00;;;;7397922;19;20172;-79
2023/04/07 02:05:59;;;;;;;10.40;7.20;;;2.80;99.90;3.00;93873.00;;;;7400353;19;20154;-81
2023/04/07 02:08:29;;;;;;;14.80;7.87;;;2.80;99.90;3.10;93841.00;;;;7399806;19;20145;-80
2023/04/07 02:11:04;;;;;;;10.60;6.77;;;2.80;99.90;3.10;93859.00;;;;7399091;19;20147;-80
2023/04/07 02:13:34;;;;;;;11.10;7.00;;;2.80;99.90;3.10;93826.00;;;;7402338;19;20141;-81
2023/04/07 02:16:09;;;;;;;10.63;7.10;;;2.80;99.90;3.10;93871.00;;;;7399092;19;20644;-81
2023/04/07 02:18:46;;;;;;;11.67;7.10;;;2.80;99.90;3.00;93849.00;;;;7400565;19;20168;-79
2023/04/07 02:21:21;;;;;;;12.90;7.37;;;2.80;99.90;3.00;93871.00;;;;7402329;19;20133;-79
2023/04/07 02:23:55;;;;;;;11.13;6.73;;;2.80;99.90;3.00;93860.00;;;;7398931;19;20476;-78
2023/04/07 02:26:36;;;;;;;11.33;7.00;;;2.80;99.90;3.20;93854.00;;;;7399989;19;20158;-79
2023/04/07 02:29:10;;;;;;;9.57;7.00;;;2.80;99.90;3.10;93847.00;;;;7400214;19;20152;-80
2023/04/07 02:31:43;;;;;;;9.80;6.27;;;2.80;99.90;3.00;93849.00;;;;7399585;19;20148;-79
2023/04/07 02:34:10;;;;;;;10.83;6.27;;;2.80;99.90;2.90;93864.00;;;;7398987;19;20514;-80
2023/04/07 02:36:38;;;;;;;9.57;6.57;;;2.80;99.90;2.80;93866.00;;;;7399208;19;20201;-80
2023/04/07 02:39:12;;;;;;;11.53;5.77;;;2.90;99.90;3.00;93813.00;;;;7400640;19;20489;-80
2023/04/07 02:41:45;;;;;;;8.67;5.83;;;2.80;99.90;2.90;93854.00;;;;7400985;19;20141;-80
2023/04/07 02:44:19;;;;;;;9.60;6.07;;;2.80;99.90;2.80;93850.00;;;;7400624;19;20593;-78
2023/04/07 02:46:46;;;;;;;9.57;6.17;;;2.80;99.90;2.80;93851.00;;;;7399549;19;20125;-80
2023/04/07 02:49:20;;;;;;;9.37;5.90;;;2.80;99.90;2.80;93811.00;;;;7398303;19;20655;-80
2023/04/07 02:51:55;;;;;;;7.97;5.50;;;2.80;99.90;3.00;93822.00;;;;7398010;19;20152;-79
2023/04/07 02:54:28;;;;;;;7.47;6.00;;;2.80;99.90;3.10;93838.00;;;;7398939;19;20497;-81
2023/04/07 02:57:09;;;;;;;10.60;6.67;;;2.80;1.00;3.20;93843.00;;;;7397966;19;20187;-80
2023/04/07 02:59:49;;;;;;;13.67;7.00;;;2.90;1.00;3.10;93842.00;;;;7398645;19;20133;-81
2023/04/07 03:02:24;;;;;;;8.47;5.87;;;2.90;1.00;3.10;93817.00;;;;7395540;19;20168;-81
2023/04/07 03:04:52;;;;;;;9.47;6.00;;;3.00;1.00;3.10;93837.00;;;;7398417;19;20243;-80
2023/04/07 03:07:25;;;;;;;9.00;5.93;;;3.00;1.00;3.10;93815.00;;;;7396224;19;20482;-81
2023/04/07 03:09:59;;;;;;;9.27;6.50;;;3.00;1.00;3.00;93842.00;;;;7393998;19;20502;-80
2023/04/07 03:12:33;;;;;;;7.73;5.60;;;3.00;1.00;3.00;93836.00;;;;7399458;19;20125;-81
2023/04/07 03:15:07;;;;;;;11.33;5.57;;;3.00;1.00;3.00;93837.00;;;;7397827;19;20223;-79
2023/04/07 03:17:43;;;;;;;9.10;6.00;;;3.00;1.00;3.00;93830.00;;;;7398125;19;20140;-80
2023/04/07 03:20:17;;;;;;;7.93;5.27;;;3.00;1.00;3.00;93831.00;;;;7395784;19;20164;-80
2023/04/07 03:22:46;;;;;;;10.00;5.90;;;2.90;1.00;3.00;93748.00;;;;7399285;19;20133;-78
2023/04/07 03:25:20;;;;;;;9.80;5.63;;;2.90;1.00;2.90;93800.00;;;;7397601;19;20160;-80
2023/04/07 03:27:47;;;;;;;9.57;5.33;;;2.90;1.00;2.90;93783.00;;;;7395875;19;20141;-80
2023/04/07 03:30:15;;;;;;;7.80;5.67;;;2.90;1.00;2.90;93802.00;;;;7396407;19;20530;-80
2023/04/07 03:32:48;;;;;;;7.43;5.40;;;2.90;1.00;3.00;93809.00;;;;7398907;19;20201;-79
2023/04/07 03:35:16;;;;;;;8.30;5.43;;;2.90;1.00;3.10;93774.00;;;;7396256;19;20129;-80
2023/04/07 03:37:49;;;;;;;7.67;5.53;;;2.90;1.00;3.00;93791.00;;;;7397682;19;20137;-81
2023/04/07 03:40:17;;;;;;;6.90;5.20;;;2.90;1.00;3.00;93796.00;;;;7398525;19;20561;-79
2023/04/07 03:42:50;;;;;;;7.90;4.67;;;2.90;1.00;3.00;93766.00;;;;7395656;19;20153;-80
2023/04/07 03:45:25;;;;;;;8.87;4.70;;;2.90;1.00;2.90;93809.00;;;;7398086;19;20137;-81
2023/04/07 03:47:53;;;;;;;11.03;5.43;;;2.90;1.00;2.90;93766.00;;;;7395576;19;20196;-79
2023/04/07 03:50:26;;;;;;;10.67;6.13;;;2.90;1.00;3.00;93821.00;;;;7398383;19;20128;-78
2023/04/07 03:53:00;;;;;;;9.70;5.90;;;2.90;1.00;3.00;93754.00;;;;7397080;19;20158;-78
2023/04/07 03:55:35;;;;;;;10.30;6.47;;;2.90;1.00;3.10;93824.00;;;;7393892;19;20148;-80
2023/04/07 03:58:09;;;;;;;11.43;6.03;;;2.90;1.00;3.10;93782.00;;;;7394688;19;20202;-80
2023/04/07 04:00:43;;;;;;;11.13;6.53;;;3.00;1.00;3.10;93820.00;;;;7396021;19;20628;-81
2023/04/07 04:03:10;;;;;;;9.80;5.97;;;3.00;1.00;3.20;93796.00;;;;7396736;19;20136;-80
2023/04/07 04:05:44;;;;;;;9.83;6.30;;;3.00;1.00;3.30;93800.00;;;;7396347;19;20128;-81
2023/04/07 04:08:11;;;;;;;9.90;6.40;;;3.00;1.00;3.40;93813.00;;;;7396616;19;20491;-80
2023/04/07 04:10:45;;;;;;;12.53;7.00;;;3.10;1.00;3.40;93782.00;;;;7393213;19;20152;-80
2023/04/07 04:13:12;;;;;;;9.93;6.70;;;3.20;1.00;3.60;93788.00;;;;7394898;19;20144;-79
2023/04/07 04:15:47;;;;;;;9.90;6.27;;;3.20;1.00;3.60;93780.00;;;;7396630;19;20498;-81
2023/04/07 04:18:21;;;;;;;12.03;7.43;;;3.20;1.00;3.60;93750.00;;;;7395769;19;20504;-78
2023/04/07 04:20:49;;;;;;;10.20;6.77;;;3.20;1.00;3.50;93812.00;;;;7396449;19;20152;-78
2023/04/07 04:23:22;;;;;;;10.60;6.93;;;3.20;1.00;3.50;93776.00;;;;7395763;19;20598;-80
2023/04/07 04:25:50;;;;;;;12.53;6.87;;;3.20;1.00;3.60;93748.00;;;;7397038;19;20148;-80
2023/04/07 04:28:24;;;;;;;11.03;6.90;;;3.20;99.90;3.60;93809.00;;;;7393879;19;20148;-80
2023/04/07 04:30:57;;;;;;;11.97;6.83;;;3.20;99.90;3.60;93763.00;;;;7395964;19;20562;-80
2023/04/07 04:33:32;;;;;;;13.37;6.80;;;3.30;99.90;3.50;93812.00;;;;7395495;19;20155;-78
2023/04/07 04:36:06;;;;;;;14.50;7.07;;;3.30;99.90;3.50;93786.00;;;;7392872;19;20150;-80
2023/04/07 04:38:39;;;;;;;11.43;7.00;;;3.30;99.90;3.60;93764.00;;;;7394876;19;20125;-79
2023/04/07 04:41:14;;;;;;;10.87;6.57;;;3.30;99.90;3.60;93805.00;;;;7396320;19;20566;-78
2023/04/07 04:43:48;;;;;;;11.30;6.30;;;3.30;99.90;3.50;93779.00;;;;7395073;19;20155;-80
2023/04/07 04:46:16;;;;;;;11.73;6.57;;;3.20;99.90;3.40;93792.00;;;;7397243;19;20229;-76
2023/04/07 04:48:53;;;;;;;10.40;5.70;;;3.20;99.90;3.30;93795.00;;;;7395157;19;20144;-78
2023/04/07 04:51:27;;;;;;;9.00;6.43;;;3.10;99.90;3.20;93780.00;;;;7394275;19;20133;-77
2023/04/07 04:53:54;;;;;;;8.27;5.90;;;3.00;99.90;3.00;93754.00;;;;7395457;19;20611;-75
2023/04/07 04:56:28;;;;;;;8.03;5.40;;;2.90;99.90;2.70;93778.00;;;;7396222;19;20153;-76
2023/04/07 04:59:10;;;;;;;10.50;6.30;;;2.80;99.90;2.70;93792.00;;;;7396762;19;20149;-75
2023/04/07 05:01:44;;;;;;;14.07;6.53;;;2.70;99.90;2.70;93791.00;;;;7391812;19;20703;-76
2023/04/07 05:04:18;;;;;;;9.40;5.43;;;2.70;99.90;2.70;93806.00;;;;7396549;19;20587;-75
2023/04/07 05:06:45;;;;;;;12.63;6.10;;;2.60;99.90;2.60;93749.00;;;;7400585;19;20132;-75
2023/04/07 05:09:19;;;;;;;8.03;5.67;;;2.50;99.90;2.40;93816.00;;;;7402210;19;20652;-76
2023/04/07 05:11:46;;;;;;;9.67;5.67;;;2.50;99.90;2.60;93800.00;;;;7403116;19;20165;-74
2023/04/07 05:14:20;;;;;;;12.77;6.40;;;2.50;99.90;2.70;93797.00;;;;7401268;19;20212;-76
2023/04/07 05:16:47;;;;;;;8.73;5.83;;;2.50;1.00;2.80;93811.00;;;;7398115;19;20149;-76
2023/04/07 05:19:21;;;;;;;14.00;6.60;;;2.50;1.00;2.90;93734.00;;;;7403111;19;20610;-76
2023/04/07 05:21:55;;;;;;;13.60;6.10;;;2.70;1.00;3.10;93807.00;;;;7401365;19;20492;-75
2023/04/07 05:24:26;;;;;;;12.67;7.40;;;2.80;1.00;3.30;93761.00;;;;7403798;19;20592;-75
2023/04/07 05:27:00;;;;;;;10.73;6.73;;;3.00;1.00;3.40;93811.00;;;;7392523;19;20144;-77
2023/04/07 05:29:28;;;;;;;12.83;7.17;;;3.00;1.00;3.60;93804.00;;;;7395517;19;20192;-74
2023/04/07 05:32:04;;;;;;;11.37;6.17;;;3.10;1.00;3.50;93812.00;;;;7393908;19;20160;-77
2023/04/07 05:34:32;;;;;;;10.87;6.50;;;3.20;1.00;3.70;93798.00;;;;7401178;19;20133;-77
2023/04/07 05:37:06;;;;;;;12.87;6.77;;;3.30;1.00;3.70;93816.00;;;;7400389;19;20152;-78
2023/04/07 05:39:33;;;;;;;12.83;6.77;;;3.40;1.00;3.80;93811.00;;;;7381223;19;20519;-78
2023/04/07 05:42:07;;;;;;;12.07;6.73;;;3.60;1.00;4.00;93813.00;;;;7382659;19;20191;-77
2023/04/07 05:44:55;;;;;;;11.03;6.30;;;3.70;1.00;4.40;93796.00;;;;7387128;19;20145;-75
2023/04/07 05:47:30;;;;;;;12.43;7.43;;;3.80;1.00;4.50;93794.00;;;;7389253;19;20172;-74
2023/04/07 05:49:59;;;;;;;12.60;6.83;;;3.90;1.00;4.80;93806.00;;;;7388118;19;20147;-75
2023/04/07 05:52:33;;;;;;;10.93;6.47;;;4.00;99.90;5.10;93807.00;;;;7389620;19;20140;-75
2023/04/07 05:55:01;;;;;;;9.80;6.40;;;4.10;99.90;5.00;93796.00;;;;7393725;19;20148;-75
2023/04/07 05:57:43;;;;;;;12.43;6.17;;;4.20;1.00;4.70;93800.00;;;;7395028;19;20649;-77
2023/04/07 06:00:23;;;;;;;10.27;5.50;;;4.40;1.00;5.20;93808.00;;;;7392323;19;20184;-75
2023/04/07 06:02:51;;;;;;;8.87;5.87;;;4.50;99.90;5.10;93766.00;;;;7388270;19;20148;-75
2023/04/07 06:05:26;;;;;;;7.13;5.07;;;4.60;99.90;5.10;93784.00;;;;7389273;19;20128;-76
2023/04/07 06:07:54;;;;;;;7.97;5.10;;;4.70;1.00;5.60;93784.00;;;;7385773;19;20500;-76
2023/04/07 06:10:28;;;;;;;7.40;5.07;;;4.70;1.00;5.40;93800.00;;;;7382570;19;20132;-75
2023/04/07 06:12:56;;;;;;;5.30;4.70;;;4.70;1.00;5.40;93799.00;;;;7382070;19;20204;-75
2023/04/07 06:15:30;;;;;;;8.00;5.13;;;4.80;1.00;5.70;93776.00;;;;7384865;19;20126;-76
2023/04/07 06:17:57;;;;;;;8.23;4.80;;;5.00;1.00;5.90;93769.00;;;;7382867;19;20136;-75
2023/04/07 06:20:26;;;;;;;7.00;4.43;;;5.10;99.90;6.00;93791.00;;;;7383314;19;20167;-75
2023/04/07 06:23:00;;;;;;;5.87;4.20;;;5.40;99.90;6.30;93750.00;;;;7383936;19;20136;-74
2023/04/07 06:25:35;;;;;;;7.63;4.57;;;5.50;99.90;5.90;93777.00;;;;7378237;19;20139;-75
2023/04/07 06:28:09;;;;;;;5.93;4.00;;;5.80;1.00;6.70;93774.00;;;;7382826;19;20203;-76
2023/04/07 06:30:37;;;;;;;6.97;4.07;;;5.90;1.00;6.90;93792.00;;;;7385365;19;20491;-75
2023/04/07 06:33:11;;;;;;;7.30;4.20;;;6.00;1.00;6.90;93792.00;;;;7385020;19;20167;-76
2023/04/07 06:35:40;;;;;;;6.17;4.13;;;6.20;99.90;6.80;93768.00;;;;7380815;19;20155;-76
2023/04/07 06:38:14;;;;;;;5.53;3.97;;;6.10;99.90;6.80;93798.00;;;;7384489;19;20128;-76
2023/04/07 06:40:42;;;;;;;4.43;3.37;;;6.00;1.00;7.10;93762.00;;;;7380617;19;20145;-76
2023/04/07 06:43:16;;;;;;;5.97;4.03;;;6.10;1.00;8.30;93776.00;;;;7382000;19;20159;-77
2023/04/07 06:45:44;;;;;;;4.77;4.17;;;6.20;47.80;8.20;93798.00;;;;7385975;19;20472;-76
2023/04/07 06:48:18;;;;;;;7.90;3.87;;;6.50;1.00;8.40;93767.00;;;;7383942;19;20159;-76
2023/04/07 06:50:48;;;;;;;6.17;3.73;;;6.80;1.00;8.50;93793.00;;;;7388263;19;20639;-77
2023/04/07 06:53:22;;;;;;;4.47;3.47;;;6.90;99.90;7.80;93794.00;;;;7386500;19;20172;-76
2023/04/07 06:55:50;;;;;;;4.30;3.90;;;7.00;99.90;7.70;93810.00;;;;7387902;19;20155;-77
2023/04/07 06:58:31;;;;;;;4.53;3.00;;;6.90;99.90;7.80;93796.00;;;;7385447;19;20189;-76
2023/04/07 07:01:06;;;;;;;5.47;3.30;;;7.00;99.90;9.00;93786.00;;;;7385483;19;20240;-76
2023/04/07 07:03:40;;;;;;;4.80;2.90;;;7.20;1.00;9.70;93752.00;;;;7386683;19;20128;-77
2023/04/07 07:06:09;;;;;;;4.13;3.13;;;7.40;1.00;9.20;93796.00;;;;7384104;19;20125;-77
2023/04/07 07:08:45;;;;;;;6.80;3.20;;;7.90;1.00;8.80;93796.00;;;;7379198;19;20255;-77
2023/04/07 07:11:19;;;;;;;3.33;2.80;;;8.10;1.00;9.30;93761.00;;;;7384003;19;20179;-76
2023/04/07 07:13:47;;;;;;;4.15;2.80;;;8.30;1.00;9.70;93788.00;;;;7383542;19;20158;-76
2023/04/07 07:16:22;;;;;;;4.23;3.00;;;8.70;1.00;9.60;93790.00;;;;7382638;19;20506;-76
2023/04/07 07:18:56;;;;;;;5.78;3.00;;;8.80;99.90;10.20;93776.00;;;;7382660;19;20144;-76
2023/04/07 07:21:24;;;;;;;4.72;2.95;;;9.00;99.90;9.20;93798.00;;;;7380563;19;20149;-77
2023/04/07 07:23:58;;;;;;;4.82;2.50;;;9.20;99.90;10.20;93772.00;;;;7384013;19;20127;-76
2023/04/07 07:26:37;;;;;;;3.55;2.50;;;9.20;99.90;10.10;93800.00;;;;7382159;19;20121;-77
2023/04/07 07:29:11;;;;;;;5.47;2.30;;;9.30;99.90;10.00;93798.00;;;;7376208;19;20151;-77
2023/04/07 07:31:39;;;;;;;8.32;2.50;;;9.50;99.90;10.50;93781.00;;;;7384240;19;20148;-77
2023/04/07 07:34:13;;;;;;;4.40;2.65;;;9.60;99.90;10.90;93788.00;;;;7383066;19;20144;-76
2023/04/07 07:36:48;;;;;;;4.75;2.30;;;9.90;99.90;11.70;93797.00;;;;7384611;19;20188;-76
2023/04/07 07:39:22;;;;;;;3.70;2.35;;;10.20;87.80;11.70;93792.00;;;;7384245;19;20219;-77
2023/04/07 07:41:50;;;;;;;6.38;2.45;;;10.50;5.70;12.90;93790.00;;;;7385616;19;20136;-75
2023/04/07 07:44:24;;;;;;;7.28;3.10;;;10.40;25.60;11.10;93808.00;;;;7386715;19;20477;-77
2023/04/07 07:46:59;;;;;;;4.22;2.45;;;10.50;1.00;12.10;93805.00;;;;7385282;19;20489;-76
2023/04/07 07:49:27;;;;;;;3.75;2.60;;;10.60;1.00;10.40;93804.00;;;;7383912;19;20145;-76
2023/04/07 07:52:01;;;;;;;3.53;2.60;;;10.50;1.00;9.60;93824.00;;;;7385034;19;20136;-76
2023/04/07 07:54:29;;;;;;;6.20;3.30;;;9.90;1.00;9.30;93798.00;;;;7381302;19;20129;-75
2023/04/07 07:57:15;;;;;;;4.05;2.78;;;9.50;1.00;8.80;93792.00;;;;7377243;19;20552;-75
2023/04/07 07:59:50;;;;;;;5.43;2.80;;;9.20;18.20;8.70;93819.00;;;;7380878;19;20133;-75
2023/04/07 08:02:29;;;;;;;5.07;3.42;;;9.20;28.10;9.10;93829.00;;;;7379627;19;20176;-75
2023/04/07 08:05:03;;;;;;;5.65;2.92;;;9.40;1.00;9.10;93831.00;;;;7381367;19;20713;-75
2023/04/07 08:07:37;;;;;;;5.47;2.53;;;9.30;2.10;9.30;93830.00;;;;7381246;19;20147;-75
2023/04/07 08:10:05;;;;;;;5.05;2.40;;;9.20;12.00;9.30;93829.00;;;;7377766;19;20144;-75
2023/04/07 08:12:39;;;;;;;6.22;3.20;;;9.20;1.90;9.30;93813.00;;;;7381745;19;20136;-77
2023/04/07 08:15:09;;;;;;;3.60;2.63;;;9.20;8.90;8.60;93837.00;;;;7383207;19;20136;-74
2023/04/07 08:17:43;;;;;;;4.20;2.80;;;9.20;1.00;8.50;93829.00;;;;7381020;19;20149;-74
2023/04/07 08:20:12;;;;;;;4.15;2.45;;;9.20;12.00;8.80;93824.00;;;;7377491;19;20734;-73
2023/04/07 08:22:47;;;;;;;5.60;3.53;;;9.30;12.70;9.70;93830.00;;;;7378194;19;20165;-74
2023/04/07 08:25:16;;;;;;;4.68;3.15;;;9.60;2.20;10.40;93839.00;;;;7375146;19;20152;-74
2023/04/07 08:27:50;;;;;;;4.93;2.75;;;9.90;1.00;9.90;93834.00;;;;7376610;19;20139;-73
2023/04/07 08:30:24;;;;;;;3.25;2.95;;;10.10;1.00;9.60;93846.00;;;;7375795;19;20133;-74
2023/04/07 08:32:51;;;;;;;5.20;2.78;;;10.10;1.00;10.10;93842.00;;;;7374841;19;20153;-73
2023/04/07 08:35:25;;;;;;;4.13;2.83;;;10.10;1.00;9.70;93834.00;;;;7376757;19;20442;-74
2023/04/07 08:37:59;;;;;;;3.67;2.38;;;10.20;1.00;9.70;93794.00;;;;7379524;19;20189;-74
2023/04/07 08:40:33;;;;;;;3.42;2.25;;;10.20;1.00;9.80;93840.00;;;;7374457;19;20116;-75
2023/04/07 08:43:08;;;;;;;3.15;2.40;;;10.30;1.00;9.60;93797.00;;;;7383609;19;20125;-74
2023/04/07 08:45:45;;;;;;;2.40;2.20;;;10.40;1.00;9.70;93819.00;;;;7383428;19;20141;-74
2023/04/07 08:48:16;;;;;;;2.88;1.73;;;10.40;1.00;8.90;93830.00;;;;7381512;19;20566;-74
2023/04/07 08:50:52;;;;;;;3.28;1.92;;;10.30;1.00;9.10;93813.00;;;;7383756;19;20591;-74
2023/04/07 08:53:49;;;;;;;4.18;2.08;;;10.20;1.00;9.90;93829.00;;;;7380922;19;21880;-75
2023/04/07 08:56:24;;;;;;;9.57;2.30;;;10.00;1.00;10.00;93823.00;;;;7373395;19;20156;-75
2023/04/07 08:59:06;;;;;;;5.95;2.53;;;10.10;1.00;10.10;93852.00;;;;7383370;19;21795;-74
2023/04/07 09:01:35;;;;;;;6.18;2.33;;;9.70;1.00;10.40;93847.00;;;;7381084;19;20235;-73
2023/04/07 09:04:10;;;;;;;4.03;2.20;;;9.70;1.00;10.10;93849.00;;;;7382833;19;20152;-73
2023/04/07 09:06:37;;;;;;;3.03;2.63;;;9.80;1.00;10.30;93842.00;;;;7382156;19;20208;-74
2023/04/07 09:09:12;;;;;;;5.40;2.55;;;10.00;1.00;9.80;93837.00;;;;7377313;19;20158;-74
2023/04/07 09:11:41;;;;;;;3.78;2.45;;;10.00;1.00;9.30;93864.00;;;;7383317;19;20142;-74
2023/04/07 09:14:17;;;;;;;6.22;3.17;;;9.90;1.00;10.10;93823.00;;;;7381657;19;20464;-74
2023/04/07 09:16:46;;;;;;;6.18;2.70;;;9.50;1.00;10.40;93859.00;;;;7377901;19;20148;-74
2023/04/07 09:19:21;;;;;;;6.07;2.80;;;9.70;1.00;10.90;93839.00;;;;7379074;19;21210;-74
2023/04/07 09:21:51;;;;;;;4.72;2.85;;;9.90;1.00;11.40;93838.00;;;;7380992;19;20129;-74
2023/04/07 09:24:30;;;;;;;6.00;3.03;;;10.10;1.00;11.60;93830.00;;;;7380925;19;20515;-73
2023/04/07 09:27:18;;;;;;;6.45;3.17;;;10.60;1.00;11.90;93824.00;;;;7370984;19;20141;-73
2023/04/07 09:30:14;;;;;;;9.02;3.78;;;10.80;1.00;10.80;93845.00;;;;7374576;19;20484;-76
2023/04/07 09:32:48;;;;;;;9.55;5.85;;;10.60;1.00;10.90;93850.00;;;;7374665;19;20628;-75
2023/04/07 09:35:15;;;;;;;7.50;4.00;;;9.90;1.00;12.10;93820.00;;;;7377233;19;20571;-75
2023/04/07 09:38:09;;;;;;;17.33;8.52;;;10.40;1.00;10.60;93823.00;;;;7374898;19;20785;-74
2023/04/07 09:40:49;;;;;;;7.35;5.00;;;10.50;1.00;11.30;93853.00;;;;7375027;19;20152;-75
2023/04/07 09:43:23;;;;;;;4.68;2.90;;;10.30;1.00;11.40;93842.00;;;;7375789;19;20509;-75
2023/04/07 09:46:17;;;;;;;7.00;5.32;;;10.40;1.00;13.00;93844.00;;;;7373743;19;20591;-74
2023/04/07 09:48:45;;;;;;;6.22;2.58;;;11.00;1.00;12.60;93855.00;;;;7371230;19;20155;-74
2023/04/07 09:51:20;;;;;;;4.53;2.58;;;11.30;1.00;12.10;93817.00;;;;7377787;19;20606;-74
2023/04/07 09:53:50;;;;;;;8.30;4.40;;;11.70;1.00;13.00;93845.00;;;;7372381;19;20125;-72
2023/04/07 09:56:25;;;;;;;8.13;2.90;;;12.30;1.00;13.30;93835.00;;;;7374269;19;20156;-74
2023/04/07 09:59:00;;;;;;;4.10;2.35;;;12.80;1.00;12.30;93836.00;;;;7374588;19;20184;-73
2023/04/07 10:01:35;;;;;;;5.28;2.67;;;12.70;1.00;11.70;93881.00;;;;7374755;19;20188;-74
2023/04/07 10:04:04;;;;;;;5.15;3.30;;;11.90;1.00;11.40;93845.00;;;;7375202;19;20129;-74
2023/04/07 10:06:38;;;;;;;7.45;3.63;;;11.10;1.00;11.10;93859.00;;;;7372074;19;20257;-74
2023/04/07 10:09:06;;;;;;;4.10;3.22;;;10.60;1.00;11.40;93868.00;;;;7367041;19;20128;-75
2023/04/07 10:11:41;;;;;;;5.35;2.85;;;10.20;1.00;11.50;93870.00;;;;7374053;19;20215;-74
2023/04/07 10:14:10;;;;;;;3.42;2.30;;;10.20;1.00;11.40;93822.00;;;;7374559;19;20503;-75
2023/04/07 10:16:48;;;;;;;4.65;2.50;;;10.50;1.00;12.30;93833.00;;;;7377210;19;20647;-74
2023/04/07 10:19:23;;;;;;;4.32;1.98;;;10.90;1.00;12.00;93861.00;;;;7377469;19;20133;-75
2023/04/07 10:21:53;;;;;;;6.93;4.22;;;11.30;1.00;12.70;93871.00;;;;7378358;19;20129;-73
2023/04/07 10:24:51;;;;;;;6.72;2.60;;;11.40;1.00;13.10;93857.00;;;;7375934;19;20129;-74
2023/04/07 10:27:32;;;;;;;7.55;2.58;;;11.60;1.00;14.10;93861.00;;;;7377107;19;20159;-75
2023/04/07 10:30:14;;;;;;;5.50;3.13;;;12.20;1.00;13.70;93866.00;;;;7379581;19;20588;-74
2023/04/07 10:32:52;;;;;;;4.60;2.10;;;12.30;1.00;13.70;93869.00;;;;7378048;19;20680;-74
2023/04/07 10:35:27;;;;;;;4.05;2.20;;;12.50;1.00;12.30;93880.00;;;;7376362;19;20144;-74
2023/04/07 10:38:10;;;;;;;4.45;2.67;;;12.50;1.00;10.80;93864.00;;;;7376801;19;20596;-74
2023/04/07 10:40:40;;;;;;;4.10;2.38;;;12.20;1.00;10.20;93888.00;;;;7375229;19;20512;-75
2023/04/07 10:43:40;;;;;;;4.45;2.55;;;11.90;1.00;10.50;93852.00;;;;7378950;19;20132;-71
2023/04/07 10:46:14;;;;;;;4.47;2.20;;;11.50;1.00;10.10;93862.00;;;;7379409;19;20159;-75
2023/04/07 10:49:09;;;;;;;5.32;2.45;;;11.20;1.00;10.90;93867.00;;;;7376753;19;20191;-75
2023/04/07 10:52:10;;;;;;;7.18;3.58;;;11.00;1.00;11.00;93877.00;;;;7377337;19;20185;-75
2023/04/07 10:54:39;;;;;;;3.55;2.50;;;11.00;1.00;11.00;93829.00;;;;7376746;19;20152;-75
2023/04/07 10:57:27;;;;;;;3.58;2.30;;;10.80;1.00;12.00;93856.00;;;;7370592;19;20157;-75
2023/04/07 11:00:09;;;;;;;3.08;2.30;;;11.60;1.00;12.80;93845.00;;;;7372434;19;20180;-75
2023/04/07 11:02:43;;;;;;;4.32;2.55;;;12.50;1.00;13.40;93840.00;;;;7372183;19;20169;-75
2023/04/07 11:05:22;;;;;;;4.57;2.40;;;13.00;1.00;12.40;93842.00;;;;7363103;19;20157;-74
2023/04/07 11:07:58;;;;;;;3.70;2.60;;;13.30;1.00;12.00;93859.00;;;;7367696;19;20144;-74
2023/04/07 11:10:25;;;;;;;4.22;2.50;;;13.00;1.00;11.50;93751.00;;;;7366949;19;20153;-74
2023/04/07 11:13:06;;;;;;;2.97;2.13;;;12.60;1.00;12.80;93839.00;;;;7379472;19;20610;-73
2023/04/07 11:15:36;;;;;;;5.65;2.47;;;12.90;1.00;15.40;93856.00;;;;7376153;19;20156;-74
2023/04/07 11:18:15;;;;;;;5.22;2.42;;;13.60;1.00;15.00;93837.00;;;;7374770;19;20474;-73
2023/04/07 11:20:57;;;;;;;4.65;2.10;;;14.00;1.00;15.50;93792.00;;;;7376206;19;20144;-74
2023/04/07 11:23:42;;;;;;;2.35;2.05;;;15.00;1.00;16.50;93795.00;;;;7378154;19;20522;-74
2023/04/07 11:26:13;;;;;;;5.70;1.88;;;15.80;1.00;16.60;93863.00;;;;7378856;19;20487;-74
2023/04/07 11:28:53;;;;;;;3.90;2.10;;;15.90;1.00;14.50;93830.00;;;;7377878;19;20158;-74
2023/04/07 11:31:30;;;;;;;2.72;2.20;;;15.60;1.00;14.00;93868.00;;;;7375552;19;20135;-75
2023/04/07 11:34:03;;;;;;;4.30;2.20;;;15.10;1.00;13.00;93884.00;;;;7377560;19;20136;-76
2023/04/07 11:36:40;;;;;;;3.03;2.17;;;14.50;1.00;12.10;93845.00;;;;7377854;19;20156;-74
2023/04/07 11:39:22;;;;;;;4.15;2.40;;;13.50;1.00;12.30;93871.00;;;;7380251;19;20139;-74